sensor_id;sensor_type;location;lat;lon;timestamp;P1;durP1;ratioP1;P2;durP2;ratioP2
42514;SDS011;28144;49.920;18.730;2023-02-28T00:02:20;39.70;;;15.60;;
42514;SDS011;28144;49.920;18.730;2023-02-28T00:04:46;44.17;;;15.87;;
42514;SDS011;28144;49.920;18.730;2023-02-28T00:07:26;39.20;;;15.07;;
42514;SDS011;28144;49.920;18.730;2023-02-28T00:09:53;39.10;;;15.47;;
42514;SDS011;28144;49.920;18.730;2023-02-28T00:12:19;42.27;;;15.27;;
42514;SDS011;28144;49.920;18.730;2023-02-28T00:14:44;43.00;;;15.67;;
42514;SDS011;28144;49.920;18.730;2023-02-28T00:17:10;45.07;;;14.40;;
42514;SDS011;28144;49.920;18.730;2023-02-28T00:19:36;44.00;;;15.93;;
42514;SDS011;28144;49.920;18.730;2023-02-28T00:22:01;40.53;;;14.97;;
42514;SDS011;28144;49.920;18.730;2023-02-28T00:24:27;48.23;;;17.83;;
42514;SDS011;28144;49.920;18.730;2023-02-28T00:26:53;40.47;;;17.40;;
42514;SDS011;28144;49.920;18.730;2023-02-28T00:29:19;44.50;;;18.27;;
42514;SDS011;28144;49.920;18.730;2023-02-28T00:31:44;38.83;;;15.80;;
42514;SDS011;28144;49.920;18.730;2023-02-28T00:34:10;41.87;;;18.27;;
42514;SDS011;28144;49.920;18.730;2023-02-28T00:36:36;40.17;;;19.93;;
42514;SDS011;28144;49.920;18.730;2023-02-28T00:39:02;44.70;;;20.37;;
42514;SDS011;28144;49.920;18.730;2023-02-28T00:41:27;45.50;;;17.50;;
42514;SDS011;28144;49.920;18.730;2023-02-28T00:43:53;38.27;;;16.60;;
42514;SDS011;28144;49.920;18.730;2023-02-28T00:46:19;40.03;;;18.13;;
42514;SDS011;28144;49.920;18.730;2023-02-28T00:48:44;37.93;;;16.63;;
42514;SDS011;28144;49.920;18.730;2023-02-28T00:51:10;41.50;;;16.60;;
42514;SDS011;28144;49.920;18.730;2023-02-28T00:53:36;34.50;;;15.13;;
42514;SDS011;28144;49.920;18.730;2023-02-28T00:56:02;36.07;;;14.23;;
42514;SDS011;28144;49.920;18.730;2023-02-28T00:58:28;36.53;;;13.70;;
42514;SDS011;28144;49.920;18.730;2023-02-28T01:00:54;39.07;;;17.03;;
42514;SDS011;28144;49.920;18.730;2023-02-28T01:03:20;48.50;;;19.40;;
42514;SDS011;28144;49.920;18.730;2023-02-28T01:05:47;44.97;;;19.60;;
42514;SDS011;28144;49.920;18.730;2023-02-28T01:08:13;49.70;;;19.93;;
42514;SDS011;28144;49.920;18.730;2023-02-28T01:10:39;46.63;;;20.10;;
42514;SDS011;28144;49.920;18.730;2023-02-28T01:13:05;47.80;;;18.50;;
42514;SDS011;28144;49.920;18.730;2023-02-28T01:15:31;55.13;;;23.37;;
42514;SDS011;28144;49.920;18.730;2023-02-28T01:18:00;58.17;;;20.50;;
42514;SDS011;28144;49.920;18.730;2023-02-28T01:20:25;50.13;;;19.07;;
42514;SDS011;28144;49.920;18.730;2023-02-28T01:22:51;43.60;;;18.10;;
42514;SDS011;28144;49.920;18.730;2023-02-28T01:25:17;42.20;;;19.20;;
42514;SDS011;28144;49.920;18.730;2023-02-28T01:27:42;41.73;;;16.43;;
42514;SDS011;28144;49.920;18.730;2023-02-28T01:30:08;40.97;;;18.43;;
42514;SDS011;28144;49.920;18.730;2023-02-28T01:32:35;40.65;;;18.33;;
42514;SDS011;28144;49.920;18.730;2023-02-28T01:35:01;44.72;;;19.88;;
42514;SDS011;28144;49.920;18.730;2023-02-28T01:37:27;36.15;;;19.40;;
42514;SDS011;28144;49.920;18.730;2023-02-28T01:39:53;49.87;;;20.73;;
42514;SDS011;28144;49.920;18.730;2023-02-28T01:42:19;40.17;;;17.67;;
42514;SDS011;28144;49.920;18.730;2023-02-28T01:45:06;36.53;;;16.23;;
42514;SDS011;28144;49.920;18.730;2023-02-28T01:47:43;48.03;;;19.57;;
42514;SDS011;28144;49.920;18.730;2023-02-28T01:50:12;38.90;;;16.08;;
42514;SDS011;28144;49.920;18.730;2023-02-28T01:52:40;40.13;;;17.57;;
42514;SDS011;28144;49.920;18.730;2023-02-28T01:55:07;40.92;;;17.45;;
42514;SDS011;28144;49.920;18.730;2023-02-28T01:57:35;38.72;;;16.90;;
42514;SDS011;28144;49.920;18.730;2023-02-28T02:00:05;38.20;;;18.97;;
42514;SDS011;28144;49.920;18.730;2023-02-28T02:02:38;34.73;;;15.37;;
42514;SDS011;28144;49.920;18.730;2023-02-28T02:05:07;43.23;;;18.10;;
42514;SDS011;28144;49.920;18.730;2023-02-28T02:07:38;42.33;;;15.17;;
42514;SDS011;28144;49.920;18.730;2023-02-28T02:12:39;32.55;;;13.68;;
42514;SDS011;28144;49.920;18.730;2023-02-28T02:15:30;42.80;;;16.23;;
42514;SDS011;28144;49.920;18.730;2023-02-28T02:18:02;34.43;;;14.07;;
42514;SDS011;28144;49.920;18.730;2023-02-28T02:37:00;36.30;;;16.00;;
42514;SDS011;28144;49.920;18.730;2023-02-28T02:42:35;27.77;;;11.90;;
42514;SDS011;28144;49.920;18.730;2023-02-28T02:45:33;36.73;;;15.77;;
42514;SDS011;28144;49.920;18.730;2023-02-28T02:48:03;27.50;;;11.95;;
42514;SDS011;28144;49.920;18.730;2023-02-28T02:50:33;39.17;;;15.93;;
42514;SDS011;28144;49.920;18.730;2023-02-28T02:53:05;36.93;;;16.37;;
42514;SDS011;28144;49.920;18.730;2023-02-28T02:55:32;40.93;;;18.70;;
42514;SDS011;28144;49.920;18.730;2023-02-28T02:58:01;30.80;;;14.57;;
42514;SDS011;28144;49.920;18.730;2023-02-28T03:00:48;40.53;;;18.60;;
42514;SDS011;28144;49.920;18.730;2023-02-28T03:03:16;38.73;;;16.93;;
42514;SDS011;28144;49.920;18.730;2023-02-28T03:05:47;39.67;;;15.50;;
42514;SDS011;28144;49.920;18.730;2023-02-28T03:08:14;37.17;;;16.03;;
42514;SDS011;28144;49.920;18.730;2023-02-28T03:10:42;35.33;;;14.85;;
42514;SDS011;28144;49.920;18.730;2023-02-28T03:24:18;31.50;;;13.80;;
42514;SDS011;28144;49.920;18.730;2023-02-28T03:26:52;35.50;;;15.70;;
42514;SDS011;28144;49.920;18.730;2023-02-28T03:29:42;35.27;;;15.73;;
42514;SDS011;28144;49.920;18.730;2023-02-28T03:32:16;31.97;;;15.00;;
42514;SDS011;28144;49.920;18.730;2023-02-28T03:34:56;40.40;;;17.00;;
42514;SDS011;28144;49.920;18.730;2023-02-28T03:37:24;36.13;;;16.47;;
42514;SDS011;28144;49.920;18.730;2023-02-28T03:39:56;36.25;;;17.40;;
42514;SDS011;28144;49.920;18.730;2023-02-28T03:42:26;35.50;;;16.17;;
42514;SDS011;28144;49.920;18.730;2023-02-28T03:45:00;35.83;;;16.07;;
42514;SDS011;28144;49.920;18.730;2023-02-28T03:47:29;34.60;;;14.90;;
42514;SDS011;28144;49.920;18.730;2023-02-28T03:50:00;35.40;;;15.57;;
42514;SDS011;28144;49.920;18.730;2023-02-28T03:52:29;34.37;;;16.33;;
42514;SDS011;28144;49.920;18.730;2023-02-28T03:54:59;30.60;;;15.13;;
42514;SDS011;28144;49.920;18.730;2023-02-28T03:57:43;34.17;;;15.27;;
42514;SDS011;28144;49.920;18.730;2023-02-28T04:00:18;36.67;;;16.13;;
42514;SDS011;28144;49.920;18.730;2023-02-28T04:02:47;37.30;;;17.83;;
42514;SDS011;28144;49.920;18.730;2023-02-28T04:05:18;33.13;;;14.63;;
42514;SDS011;28144;49.920;18.730;2023-02-28T04:07:44;33.13;;;15.67;;
42514;SDS011;28144;49.920;18.730;2023-02-28T04:10:11;34.30;;;15.83;;
42514;SDS011;28144;49.920;18.730;2023-02-28T04:15:03;36.77;;;14.80;;
42514;SDS011;28144;49.920;18.730;2023-02-28T04:17:29;33.08;;;14.30;;
42514;SDS011;28144;49.920;18.730;2023-02-28T04:19:54;37.27;;;17.30;;
42514;SDS011;28144;49.920;18.730;2023-02-28T04:22:22;37.33;;;15.77;;
42514;SDS011;28144;49.920;18.730;2023-02-28T04:24:51;32.63;;;16.10;;
42514;SDS011;28144;49.920;18.730;2023-02-28T04:27:17;35.27;;;16.20;;
42514;SDS011;28144;49.920;18.730;2023-02-28T04:29:42;30.90;;;14.23;;
42514;SDS011;28144;49.920;18.730;2023-02-28T04:32:10;36.60;;;15.70;;
42514;SDS011;28144;49.920;18.730;2023-02-28T04:34:36;36.05;;;14.57;;
42514;SDS011;28144;49.920;18.730;2023-02-28T04:37:02;33.97;;;15.33;;
42514;SDS011;28144;49.920;18.730;2023-02-28T04:39:28;34.75;;;15.05;;
42514;SDS011;28144;49.920;18.730;2023-02-28T04:41:55;37.83;;;16.05;;
42514;SDS011;28144;49.920;18.730;2023-02-28T04:44:21;34.88;;;15.80;;
42514;SDS011;28144;49.920;18.730;2023-02-28T04:46:48;26.15;;;12.38;;
42514;SDS011;28144;49.920;18.730;2023-02-28T04:49:14;38.75;;;15.75;;
42514;SDS011;28144;49.920;18.730;2023-02-28T04:51:40;28.35;;;13.63;;
42514;SDS011;28144;49.920;18.730;2023-02-28T04:54:06;29.83;;;15.17;;
42514;SDS011;28144;49.920;18.730;2023-02-28T04:56:32;25.83;;;13.75;;
42514;SDS011;28144;49.920;18.730;2023-02-28T04:58:58;30.67;;;14.67;;
42514;SDS011;28144;49.920;18.730;2023-02-28T05:01:25;31.80;;;13.87;;
42514;SDS011;28144;49.920;18.730;2023-02-28T05:03:56;34.60;;;16.10;;
42514;SDS011;28144;49.920;18.730;2023-02-28T05:06:23;38.47;;;16.53;;
42514;SDS011;28144;49.920;18.730;2023-02-28T05:08:50;43.87;;;16.57;;
42514;SDS011;28144;49.920;18.730;2023-02-28T05:11:17;43.67;;;18.17;;
42514;SDS011;28144;49.920;18.730;2023-02-28T05:13:47;45.90;;;20.13;;
42514;SDS011;28144;49.920;18.730;2023-02-28T05:16:14;47.13;;;19.55;;
42514;SDS011;28144;49.920;18.730;2023-02-28T05:18:40;42.78;;;18.42;;
42514;SDS011;28144;49.920;18.730;2023-02-28T05:21:06;34.30;;;14.90;;
42514;SDS011;28144;49.920;18.730;2023-02-28T05:24:04;37.50;;;18.33;;
42514;SDS011;28144;49.920;18.730;2023-02-28T05:26:39;48.50;;;18.50;;
42514;SDS011;28144;49.920;18.730;2023-02-28T05:29:06;38.20;;;18.43;;
42514;SDS011;28144;49.920;18.730;2023-02-28T05:31:32;41.27;;;19.43;;
42514;SDS011;28144;49.920;18.730;2023-02-28T05:33:58;47.17;;;19.80;;
42514;SDS011;28144;49.920;18.730;2023-02-28T05:36:24;45.47;;;18.27;;
42514;SDS011;28144;49.920;18.730;2023-02-28T05:38:50;39.13;;;18.70;;
42514;SDS011;28144;49.920;18.730;2023-02-28T05:41:17;48.00;;;18.98;;
42514;SDS011;28144;49.920;18.730;2023-02-28T05:43:44;40.70;;;20.17;;
42514;SDS011;28144;49.920;18.730;2023-02-28T05:46:10;43.60;;;21.15;;
42514;SDS011;28144;49.920;18.730;2023-02-28T05:48:37;46.72;;;20.05;;
42514;SDS011;28144;49.920;18.730;2023-02-28T05:51:04;44.10;;;18.33;;
42514;SDS011;28144;49.920;18.730;2023-02-28T05:53:30;50.28;;;18.63;;
42514;SDS011;28144;49.920;18.730;2023-02-28T05:55:56;40.05;;;19.48;;
42514;SDS011;28144;49.920;18.730;2023-02-28T05:58:22;43.03;;;17.97;;
42514;SDS011;28144;49.920;18.730;2023-02-28T06:00:48;47.20;;;20.42;;
42514;SDS011;28144;49.920;18.730;2023-02-28T06:03:14;44.57;;;15.50;;
42514;SDS011;28144;49.920;18.730;2023-02-28T06:05:40;36.47;;;17.63;;
42514;SDS011;28144;49.920;18.730;2023-02-28T06:08:05;45.43;;;18.23;;
42514;SDS011;28144;49.920;18.730;2023-02-28T06:10:33;36.22;;;13.57;;
42514;SDS011;28144;49.920;18.730;2023-02-28T06:13:00;43.95;;;17.77;;
42514;SDS011;28144;49.920;18.730;2023-02-28T06:15:28;30.43;;;13.53;;
42514;SDS011;28144;49.920;18.730;2023-02-28T06:17:54;45.20;;;19.70;;
42514;SDS011;28144;49.920;18.730;2023-02-28T06:20:22;46.17;;;19.50;;
42514;SDS011;28144;49.920;18.730;2023-02-28T06:22:48;41.45;;;20.42;;
42514;SDS011;28144;49.920;18.730;2023-02-28T06:25:16;39.67;;;19.70;;
42514;SDS011;28144;49.920;18.730;2023-02-28T06:27:42;45.43;;;18.40;;
42514;SDS011;28144;49.920;18.730;2023-02-28T06:30:09;35.75;;;14.20;;
42514;SDS011;28144;49.920;18.730;2023-02-28T06:32:35;40.83;;;18.77;;
42514;SDS011;28144;49.920;18.730;2023-02-28T06:35:01;40.97;;;17.90;;
42514;SDS011;28144;49.920;18.730;2023-02-28T06:37:27;31.10;;;14.70;;
42514;SDS011;28144;49.920;18.730;2023-02-28T06:39:53;40.90;;;18.90;;
42514;SDS011;28144;49.920;18.730;2023-02-28T06:42:21;45.60;;;22.20;;
42514;SDS011;28144;49.920;18.730;2023-02-28T06:44:50;33.47;;;15.23;;
42514;SDS011;28144;49.920;18.730;2023-02-28T06:47:16;18.52;;;6.47;;
42514;SDS011;28144;49.920;18.730;2023-02-28T06:49:42;30.52;;;13.00;;
42514;SDS011;28144;49.920;18.730;2023-02-28T06:52:10;40.17;;;18.17;;
42514;SDS011;28144;49.920;18.730;2023-02-28T06:54:36;23.60;;;10.17;;
42514;SDS011;28144;49.920;18.730;2023-02-28T06:57:02;37.67;;;16.17;;
42514;SDS011;28144;49.920;18.730;2023-02-28T06:59:28;34.87;;;14.77;;
42514;SDS011;28144;49.920;18.730;2023-02-28T07:01:53;40.00;;;15.90;;
42514;SDS011;28144;49.920;18.730;2023-02-28T07:04:20;15.82;;;9.45;;
42514;SDS011;28144;49.920;18.730;2023-02-28T07:06:46;38.33;;;15.30;;
42514;SDS011;28144;49.920;18.730;2023-02-28T07:09:12;22.63;;;9.37;;
42514;SDS011;28144;49.920;18.730;2023-02-28T07:11:39;35.58;;;13.80;;
42514;SDS011;28144;49.920;18.730;2023-02-28T07:14:06;46.30;;;18.17;;
42514;SDS011;28144;49.920;18.730;2023-02-28T07:16:32;49.47;;;21.10;;
42514;SDS011;28144;49.920;18.730;2023-02-28T07:18:58;43.60;;;16.65;;
42514;SDS011;28144;49.920;18.730;2023-02-28T07:21:24;29.67;;;12.90;;
42514;SDS011;28144;49.920;18.730;2023-02-28T07:23:50;38.40;;;17.15;;
42514;SDS011;28144;49.920;18.730;2023-02-28T07:26:17;43.10;;;19.02;;
42514;SDS011;28144;49.920;18.730;2023-02-28T07:28:45;17.90;;;8.33;;
42514;SDS011;28144;49.920;18.730;2023-02-28T07:31:12;37.35;;;13.40;;
42514;SDS011;28144;49.920;18.730;2023-02-28T07:33:39;37.73;;;16.33;;
42514;SDS011;28144;49.920;18.730;2023-02-28T07:36:15;33.90;;;13.60;;
42514;SDS011;28144;49.920;18.730;2023-02-28T07:38:45;43.70;;;18.97;;
42514;SDS011;28144;49.920;18.730;2023-02-28T07:41:13;45.60;;;19.40;;
42514;SDS011;28144;49.920;18.730;2023-02-28T07:43:40;47.63;;;21.40;;
42514;SDS011;28144;49.920;18.730;2023-02-28T07:46:07;46.90;;;17.43;;
42514;SDS011;28144;49.920;18.730;2023-02-28T07:48:34;44.07;;;19.03;;
42514;SDS011;28144;49.920;18.730;2023-02-28T07:51:00;29.00;;;11.90;;
42514;SDS011;28144;49.920;18.730;2023-02-28T07:53:28;44.77;;;18.40;;
42514;SDS011;28144;49.920;18.730;2023-02-28T07:55:55;33.85;;;12.55;;
42514;SDS011;28144;49.920;18.730;2023-02-28T07:58:21;45.13;;;18.43;;
42514;SDS011;28144;49.920;18.730;2023-02-28T08:00:47;21.50;;;7.70;;
42514;SDS011;28144;49.920;18.730;2023-02-28T08:03:13;49.23;;;18.00;;
42514;SDS011;28144;49.920;18.730;2023-02-28T08:05:39;41.37;;;17.63;;
42514;SDS011;28144;49.920;18.730;2023-02-28T08:08:06;49.60;;;21.45;;
42514;SDS011;28144;49.920;18.730;2023-02-28T08:10:32;48.97;;;20.25;;
42514;SDS011;28144;49.920;18.730;2023-02-28T08:12:58;40.55;;;17.75;;
42514;SDS011;28144;49.920;18.730;2023-02-28T08:15:24;20.70;;;10.37;;
42514;SDS011;28144;49.920;18.730;2023-02-28T08:17:50;44.00;;;17.03;;
42514;SDS011;28144;49.920;18.730;2023-02-28T08:20:15;35.17;;;15.20;;
42514;SDS011;28144;49.920;18.730;2023-02-28T08:22:41;28.83;;;12.10;;
42514;SDS011;28144;49.920;18.730;2023-02-28T08:25:07;44.60;;;15.33;;
42514;SDS011;28144;49.920;18.730;2023-02-28T08:27:34;40.83;;;18.77;;
42514;SDS011;28144;49.920;18.730;2023-02-28T08:30:00;31.27;;;15.98;;
42514;SDS011;28144;49.920;18.730;2023-02-28T08:32:26;28.30;;;11.67;;
42514;SDS011;28144;49.920;18.730;2023-02-28T08:34:51;40.57;;;15.60;;
42514;SDS011;28144;49.920;18.730;2023-02-28T08:37:17;24.93;;;9.67;;
42514;SDS011;28144;49.920;18.730;2023-02-28T08:39:43;31.90;;;12.67;;
42514;SDS011;28144;49.920;18.730;2023-02-28T08:42:08;40.63;;;17.33;;
42514;SDS011;28144;49.920;18.730;2023-02-28T08:44:34;29.77;;;13.83;;
42514;SDS011;28144;49.920;18.730;2023-02-28T08:47:00;39.07;;;15.43;;
42514;SDS011;28144;49.920;18.730;2023-02-28T08:49:26;30.10;;;11.77;;
42514;SDS011;28144;49.920;18.730;2023-02-28T08:51:51;30.53;;;12.13;;
42514;SDS011;28144;49.920;18.730;2023-02-28T08:54:17;23.80;;;11.53;;
42514;SDS011;28144;49.920;18.730;2023-02-28T08:56:45;23.13;;;9.60;;
42514;SDS011;28144;49.920;18.730;2023-02-28T08:59:12;31.53;;;13.83;;
42514;SDS011;28144;49.920;18.730;2023-02-28T09:01:38;43.80;;;14.77;;
42514;SDS011;28144;49.920;18.730;2023-02-28T09:04:03;24.20;;;11.07;;
42514;SDS011;28144;49.920;18.730;2023-02-28T09:06:33;17.57;;;7.23;;
42514;SDS011;28144;49.920;18.730;2023-02-28T09:11:26;24.00;;;10.10;;
42514;SDS011;28144;49.920;18.730;2023-02-28T09:13:52;13.65;;;4.78;;
42514;SDS011;28144;49.920;18.730;2023-02-28T09:16:19;17.23;;;6.20;;
42514;SDS011;28144;49.920;18.730;2023-02-28T09:18:44;12.00;;;4.73;;
42514;SDS011;28144;49.920;18.730;2023-02-28T09:21:11;18.20;;;3.80;;
42514;SDS011;28144;49.920;18.730;2023-02-28T09:23:39;10.27;;;4.10;;
42514;SDS011;28144;49.920;18.730;2023-02-28T09:26:06;10.63;;;4.57;;
42514;SDS011;28144;49.920;18.730;2023-02-28T09:28:32;5.90;;;3.10;;
42514;SDS011;28144;49.920;18.730;2023-02-28T09:30:58;15.53;;;5.70;;
42514;SDS011;28144;49.920;18.730;2023-02-28T09:33:24;17.43;;;6.17;;
42514;SDS011;28144;49.920;18.730;2023-02-28T09:35:51;14.02;;;5.60;;
42514;SDS011;28144;49.920;18.730;2023-02-28T09:38:17;10.25;;;4.57;;
42514;SDS011;28144;49.920;18.730;2023-02-28T09:40:50;13.38;;;5.80;;
42514;SDS011;28144;49.920;18.730;2023-02-28T09:43:18;13.97;;;7.17;;
42514;SDS011;28144;49.920;18.730;2023-02-28T09:45:48;19.20;;;7.30;;
42514;SDS011;28144;49.920;18.730;2023-02-28T09:48:24;7.20;;;3.20;;
42514;SDS011;28144;49.920;18.730;2023-02-28T09:50:53;9.40;;;4.67;;
42514;SDS011;28144;49.920;18.730;2023-02-28T09:53:28;15.30;;;7.50;;
42514;SDS011;28144;49.920;18.730;2023-02-28T09:56:01;12.23;;;5.00;;
42514;SDS011;28144;49.920;18.730;2023-02-28T09:58:35;13.80;;;6.77;;
42514;SDS011;28144;49.920;18.730;2023-02-28T10:01:12;17.87;;;6.10;;
42514;SDS011;28144;49.920;18.730;2023-02-28T10:06:32;15.47;;;6.63;;
42514;SDS011;28144;49.920;18.730;2023-02-28T10:09:04;11.57;;;3.83;;
42514;SDS011;28144;49.920;18.730;2023-02-28T10:11:35;12.97;;;6.90;;
42514;SDS011;28144;49.920;18.730;2023-02-28T10:14:15;12.43;;;5.10;;
42514;SDS011;28144;49.920;18.730;2023-02-28T10:19:14;14.53;;;6.47;;
42514;SDS011;28144;49.920;18.730;2023-02-28T10:21:56;10.30;;;3.00;;
42514;SDS011;28144;49.920;18.730;2023-02-28T10:29:44;12.97;;;5.73;;
42514;SDS011;28144;49.920;18.730;2023-02-28T10:32:47;17.87;;;8.30;;
42514;SDS011;28144;49.920;18.730;2023-02-28T10:37:41;17.17;;;5.90;;
42514;SDS011;28144;49.920;18.730;2023-02-28T10:42:55;17.90;;;6.73;;
42514;SDS011;28144;49.920;18.730;2023-02-28T10:45:32;12.57;;;5.87;;
42514;SDS011;28144;49.920;18.730;2023-02-28T10:50:30;13.00;;;6.23;;
42514;SDS011;28144;49.920;18.730;2023-02-28T10:53:05;9.40;;;5.13;;
42514;SDS011;28144;49.920;18.730;2023-02-28T10:55:37;14.77;;;6.47;;
42514;SDS011;28144;49.920;18.730;2023-02-28T10:58:14;14.80;;;7.20;;
42514;SDS011;28144;49.920;18.730;2023-02-28T11:00:46;15.43;;;7.73;;
42514;SDS011;28144;49.920;18.730;2023-02-28T11:03:31;19.33;;;7.78;;
42514;SDS011;28144;49.920;18.730;2023-02-28T11:06:03;17.23;;;7.80;;
42514;SDS011;28144;49.920;18.730;2023-02-28T11:08:30;8.83;;;4.20;;
42514;SDS011;28144;49.920;18.730;2023-02-28T11:10:57;14.63;;;7.77;;
42514;SDS011;28144;49.920;18.730;2023-02-28T11:13:26;18.63;;;8.93;;
42514;SDS011;28144;49.920;18.730;2023-02-28T11:15:55;12.50;;;5.67;;
42514;SDS011;28144;49.920;18.730;2023-02-28T11:18:25;10.93;;;5.60;;
42514;SDS011;28144;49.920;18.730;2023-02-28T11:20:54;14.30;;;4.73;;
42514;SDS011;28144;49.920;18.730;2023-02-28T11:23:22;19.10;;;8.40;;
42514;SDS011;28144;49.920;18.730;2023-02-28T11:25:51;25.50;;;9.13;;
42514;SDS011;28144;49.920;18.730;2023-02-28T11:31:00;10.77;;;3.83;;
42514;SDS011;28144;49.920;18.730;2023-02-28T11:33:29;13.40;;;6.57;;
42514;SDS011;28144;49.920;18.730;2023-02-28T11:36:25;13.87;;;6.10;;
42514;SDS011;28144;49.920;18.730;2023-02-28T11:51:47;15.70;;;6.27;;
42514;SDS011;28144;49.920;18.730;2023-02-28T12:24:54;14.87;;;6.83;;
42514;SDS011;28144;49.920;18.730;2023-02-28T12:27:24;19.27;;;7.57;;
42514;SDS011;28144;49.920;18.730;2023-02-28T12:30:02;18.57;;;7.40;;
42514;SDS011;28144;49.920;18.730;2023-02-28T12:32:34;20.00;;;9.53;;
42514;SDS011;28144;49.920;18.730;2023-02-28T12:35:10;21.17;;;10.17;;
42514;SDS011;28144;49.920;18.730;2023-02-28T12:37:44;14.43;;;6.90;;
42514;SDS011;28144;49.920;18.730;2023-02-28T12:40:13;21.43;;;9.27;;
42514;SDS011;28144;49.920;18.730;2023-02-28T12:42:49;18.90;;;8.23;;
42514;SDS011;28144;49.920;18.730;2023-02-28T12:45:18;10.60;;;5.67;;
42514;SDS011;28144;49.920;18.730;2023-02-28T12:47:46;18.80;;;9.50;;
42514;SDS011;28144;49.920;18.730;2023-02-28T12:50:15;14.80;;;6.87;;
42514;SDS011;28144;49.920;18.730;2023-02-28T12:55:50;26.43;;;11.53;;
42514;SDS011;28144;49.920;18.730;2023-02-28T13:09:39;20.03;;;7.70;;
42514;SDS011;28144;49.920;18.730;2023-02-28T13:12:14;21.40;;;8.87;;
42514;SDS011;28144;49.920;18.730;2023-02-28T13:14:41;21.42;;;7.55;;
42514;SDS011;28144;49.920;18.730;2023-02-28T13:19:33;12.53;;;5.63;;
42514;SDS011;28144;49.920;18.730;2023-02-28T13:22:01;17.03;;;7.93;;
42514;SDS011;28144;49.920;18.730;2023-02-28T13:29:37;12.70;;;5.57;;
42514;SDS011;28144;49.920;18.730;2023-02-28T13:34:32;15.70;;;8.60;;
42514;SDS011;28144;49.920;18.730;2023-02-28T13:42:32;18.43;;;8.23;;
42514;SDS011;28144;49.920;18.730;2023-02-28T13:47:43;11.23;;;5.73;;
42514;SDS011;28144;49.920;18.730;2023-02-28T13:50:20;16.43;;;7.53;;
42514;SDS011;28144;49.920;18.730;2023-02-28T14:01:20;12.47;;;4.27;;
42514;SDS011;28144;49.920;18.730;2023-02-28T14:11:52;9.90;;;4.40;;
42514;SDS011;28144;49.920;18.730;2023-02-28T14:17:06;22.50;;;7.13;;
42514;SDS011;28144;49.920;18.730;2023-02-28T14:19:35;19.30;;;8.97;;
42514;SDS011;28144;49.920;18.730;2023-02-28T14:38:27;15.87;;;8.13;;
42514;SDS011;28144;49.920;18.730;2023-02-28T14:40:57;10.03;;;4.90;;
42514;SDS011;28144;49.920;18.730;2023-02-28T14:43:25;16.67;;;8.30;;
42514;SDS011;28144;49.920;18.730;2023-02-28T14:45:53;15.07;;;6.57;;
42514;SDS011;28144;49.920;18.730;2023-02-28T14:48:25;16.63;;;8.50;;
42514;SDS011;28144;49.920;18.730;2023-02-28T14:53:19;19.07;;;6.10;;
42514;SDS011;28144;49.920;18.730;2023-02-28T14:58:22;19.48;;;8.38;;
42514;SDS011;28144;49.920;18.730;2023-02-28T15:00:52;15.10;;;7.73;;
42514;SDS011;28144;49.920;18.730;2023-02-28T15:03:24;8.33;;;3.13;;
42514;SDS011;28144;49.920;18.730;2023-02-28T15:05:59;15.07;;;6.53;;
42514;SDS011;28144;49.920;18.730;2023-02-28T15:08:28;20.93;;;8.27;;
42514;SDS011;28144;49.920;18.730;2023-02-28T15:13:20;23.57;;;8.77;;
42514;SDS011;28144;49.920;18.730;2023-02-28T15:15:56;22.40;;;8.17;;
42514;SDS011;28144;49.920;18.730;2023-02-28T15:21:34;19.57;;;7.10;;
42514;SDS011;28144;49.920;18.730;2023-02-28T15:24:06;21.67;;;9.90;;
42514;SDS011;28144;49.920;18.730;2023-02-28T15:26:57;27.80;;;11.33;;
42514;SDS011;28144;49.920;18.730;2023-02-28T15:29:25;21.47;;;9.93;;
42514;SDS011;28144;49.920;18.730;2023-02-28T15:31:58;13.00;;;6.80;;
42514;SDS011;28144;49.920;18.730;2023-02-28T15:37:24;19.23;;;10.02;;
42514;SDS011;28144;49.920;18.730;2023-02-28T15:39:50;9.30;;;4.80;;
42514;SDS011;28144;49.920;18.730;2023-02-28T15:42:18;24.20;;;8.65;;
42514;SDS011;28144;49.920;18.730;2023-02-28T15:44:47;26.30;;;9.57;;
42514;SDS011;28144;49.920;18.730;2023-02-28T15:47:17;23.95;;;11.60;;
42514;SDS011;28144;49.920;18.730;2023-02-28T15:49:48;23.77;;;11.00;;
42514;SDS011;28144;49.920;18.730;2023-02-28T15:52:20;19.67;;;9.67;;
42514;SDS011;28144;49.920;18.730;2023-02-28T15:54:48;21.27;;;11.03;;
42514;SDS011;28144;49.920;18.730;2023-02-28T15:57:18;21.00;;;9.20;;
42514;SDS011;28144;49.920;18.730;2023-02-28T15:59:52;17.67;;;9.93;;
42514;SDS011;28144;49.920;18.730;2023-02-28T16:02:21;22.63;;;10.73;;
42514;SDS011;28144;49.920;18.730;2023-02-28T16:07:28;22.47;;;10.87;;
42514;SDS011;28144;49.920;18.730;2023-02-28T16:09:54;25.08;;;11.60;;
42514;SDS011;28144;49.920;18.730;2023-02-28T16:12:20;36.03;;;15.03;;
42514;SDS011;28144;49.920;18.730;2023-02-28T16:14:52;21.93;;;10.73;;
42514;SDS011;28144;49.920;18.730;2023-02-28T16:17:22;28.05;;;14.05;;
42514;SDS011;28144;49.920;18.730;2023-02-28T16:19:49;33.97;;;13.90;;
42514;SDS011;28144;49.920;18.730;2023-02-28T16:22:15;32.27;;;15.50;;
42514;SDS011;28144;49.920;18.730;2023-02-28T16:24:41;48.23;;;18.40;;
42514;SDS011;28144;49.920;18.730;2023-02-28T16:27:10;36.10;;;16.90;;
42514;SDS011;28144;49.920;18.730;2023-02-28T16:29:42;48.10;;;19.20;;
42514;SDS011;28144;49.920;18.730;2023-02-28T16:32:10;43.47;;;17.60;;
42514;SDS011;28144;49.920;18.730;2023-02-28T16:34:38;41.17;;;18.47;;
42514;SDS011;28144;49.920;18.730;2023-02-28T16:37:04;31.20;;;14.33;;
42514;SDS011;28144;49.920;18.730;2023-02-28T16:39:35;39.23;;;15.40;;
42514;SDS011;28144;49.920;18.730;2023-02-28T16:42:00;39.90;;;14.40;;
42514;SDS011;28144;49.920;18.730;2023-02-28T16:44:29;32.60;;;14.13;;
42514;SDS011;28144;49.920;18.730;2023-02-28T16:46:59;41.03;;;15.90;;
42514;SDS011;28144;49.920;18.730;2023-02-28T16:49:25;35.33;;;14.47;;
42514;SDS011;28144;49.920;18.730;2023-02-28T16:51:52;35.72;;;17.20;;
42514;SDS011;28144;49.920;18.730;2023-02-28T16:54:18;35.25;;;18.02;;
42514;SDS011;28144;49.920;18.730;2023-02-28T16:56:45;32.53;;;15.80;;
42514;SDS011;28144;49.920;18.730;2023-02-28T16:59:13;36.50;;;19.07;;
42514;SDS011;28144;49.920;18.730;2023-02-28T17:01:40;34.67;;;19.00;;
42514;SDS011;28144;49.920;18.730;2023-02-28T17:04:08;41.10;;;17.50;;
42514;SDS011;28144;49.920;18.730;2023-02-28T17:06:35;47.10;;;20.80;;
42514;SDS011;28144;49.920;18.730;2023-02-28T17:09:01;70.80;;;26.17;;
42514;SDS011;28144;49.920;18.730;2023-02-28T17:11:27;82.70;;;31.37;;
42514;SDS011;28144;49.920;18.730;2023-02-28T17:13:53;76.00;;;28.50;;
42514;SDS011;28144;49.920;18.730;2023-02-28T17:18:44;108.83;;;39.97;;
42514;SDS011;28144;49.920;18.730;2023-02-28T17:21:16;123.07;;;45.77;;
42514;SDS011;28144;49.920;18.730;2023-02-28T17:23:43;101.30;;;45.23;;
42514;SDS011;28144;49.920;18.730;2023-02-28T17:26:11;63.03;;;28.83;;
42514;SDS011;28144;49.920;18.730;2023-02-28T17:28:39;63.30;;;28.87;;
42514;SDS011;28144;49.920;18.730;2023-02-28T17:31:05;54.65;;;25.92;;
42514;SDS011;28144;49.920;18.730;2023-02-28T17:33:31;49.17;;;22.73;;